Time;durP1;ratioP1;P1;durP2;ratioP2;P2;SDS_P1;SDS_P2;PMS_P1;PMS_P2;Temp;Humidity;BMP_temperature;BMP_pressure;BME280_temperature;BME280_humidity;BME280_pressure;Samples;Min_cycle;Max_cycle;Signal;HPM_P1;HPM_P2
2022/10/07 00:01:45;;;;;;;52.53;23.70;;;;;;;;;;6160153;28;20090;-54
2022/10/07 00:04:45;;;;;;;61.50;25.75;;;;;;;;;;6159187;28;20053;-56
2022/10/07 00:07:46;;;;;;;60.95;23.80;;;;;;;;;;6163670;28;20422;-57
2022/10/07 00:10:46;;;;;;;63.30;24.60;;;;;;;;;;6168602;28;20498;-54
2022/10/07 00:13:51;;;;;;;65.35;26.15;;;;;;;;;;6167428;28;20391;-54
2022/10/07 00:16:51;;;;;;;64.55;23.40;;;;;;;;;;6165090;28;20038;-54
2022/10/07 00:19:52;;;;;;;68.63;26.88;;;;;;;;;;6166920;28;20467;-51
2022/10/07 00:22:53;;;;;;;66.65;26.38;;;;;;;;;;6160803;28;20057;-52
2022/10/07 00:25:58;;;;;;;54.08;22.55;;;;;;;;;;6167205;28;20049;-54
2022/10/07 00:29:00;;;;;;;50.33;21.65;;;;;;;;;;6161080;28;20085;-50
2022/10/07 00:32:00;;;;;;;54.15;24.33;;;;;;;;;;6157982;28;20502;-55
2022/10/07 00:35:01;;;;;;;55.55;22.60;;;;;;;;;;6158681;28;20061;-56
2022/10/07 00:38:01;;;;;;;63.17;24.88;;;;;;;;;;6158021;28;20043;-56
2022/10/07 00:41:02;;;;;;;51.20;22.33;;;;;;;;;;6159178;28;20051;-57
2022/10/07 00:44:42;;;;;;;55.22;22.60;;;;;;;;;;6158102;28;20062;-52
2022/10/07 00:47:45;;;;;;;59.42;23.13;;;;;;;;;;6160485;28;20054;-55
2022/10/07 00:50:49;;;;;;;54.08;21.52;;;;;;;;;;6164972;28;20233;-52
2022/10/07 00:53:53;;;;;;;52.63;21.45;;;;;;;;;;6162248;28;20043;-51
2022/10/07 00:56:53;;;;;;;52.70;21.00;;;;;;;;;;6158445;28;20163;-55
2022/10/07 00:59:55;;;;;;;76.97;27.60;;;;;;;;;;6160181;28;20070;-49
2022/10/07 01:02:57;;;;;;;53.22;22.25;;;;;;;;;;6164157;28;20133;-55
2022/10/07 01:05:58;;;;;;;61.28;23.77;;;;;;;;;;6160435;28;20047;-53
2022/10/07 01:08:58;;;;;;;57.30;23.25;;;;;;;;;;6166147;28;20116;-51
2022/10/07 01:12:15;;;;;;;50.55;21.27;;;;;;;;;;6161758;28;20043;-51
2022/10/07 01:15:24;;;;;;;69.85;22.98;;;;;;;;;;6158148;28;20142;-52
2022/10/07 01:18:30;;;;;;;60.42;21.88;;;;;;;;;;6157267;28;20059;-49
2022/10/07 01:21:39;;;;;;;54.60;22.10;;;;;;;;;;6159323;28;20801;-50
2022/10/07 01:25:06;;;;;;;56.72;21.40;;;;;;;;;;6163062;28;20055;-51
2022/10/07 01:28:20;;;;;;;50.55;23.15;;;;;;;;;;6156998;28;20063;-51
2022/10/07 01:31:26;;;;;;;50.28;21.35;;;;;;;;;;6156908;28;20054;-51
2022/10/07 01:34:27;;;;;;;49.10;20.90;;;;;;;;;;6157749;28;20589;-55
2022/10/07 01:37:33;;;;;;;53.85;21.10;;;;;;;;;;6160818;28;20050;-53
2022/10/07 01:40:58;;;;;;;53.50;21.25;;;;;;;;;;6160900;28;20245;-53
2022/10/07 01:44:00;;;;;;;44.65;20.10;;;;;;;;;;6159637;28;20058;-51
2022/10/07 01:47:01;;;;;;;46.88;18.83;;;;;;;;;;6163061;28;20065;-50
2022/10/07 01:50:10;;;;;;;47.00;19.93;;;;;;;;;;6160936;28;20047;-51
2022/10/07 01:53:26;;;;;;;47.97;19.08;;;;;;;;;;6160651;28;20057;-50
2022/10/07 01:56:53;;;;;;;51.83;20.23;;;;;;;;;;6162589;28;20083;-52
2022/10/07 02:00:04;;;;;;;51.05;20.05;;;;;;;;;;6161332;28;20125;-53
2022/10/07 02:03:28;;;;;;;47.13;19.95;;;;;;;;;;6161078;28;20111;-50
2022/10/07 02:06:48;;;;;;;46.13;19.25;;;;;;;;;;6162300;28;20075;-53
2022/10/07 02:10:11;;;;;;;54.67;21.63;;;;;;;;;;6167157;28;20050;-58
2022/10/07 02:13:27;;;;;;;46.33;19.60;;;;;;;;;;6167623;28;20047;-53
2022/10/07 02:16:39;;;;;;;46.85;20.27;;;;;;;;;;6163333;28;20073;-50
2022/10/07 02:19:46;;;;;;;51.42;19.92;;;;;;;;;;6161210;28;20050;-50
2022/10/07 02:22:48;;;;;;;48.80;19.58;;;;;;;;;;6168108;28;20089;-53
2022/10/07 02:25:54;;;;;;;46.35;18.45;;;;;;;;;;6167899;28;20050;-60
2022/10/07 02:28:56;;;;;;;45.95;20.13;;;;;;;;;;6168684;28;20494;-55
2022/10/07 02:32:03;;;;;;;49.70;20.52;;;;;;;;;;6166429;28;20065;-53
2022/10/07 02:35:16;;;;;;;53.72;21.80;;;;;;;;;;6165711;28;20058;-50
2022/10/07 02:38:17;;;;;;;48.08;19.05;;;;;;;;;;6163991;28;20526;-55
2022/10/07 02:41:32;;;;;;;48.33;20.27;;;;;;;;;;6161595;28;20137;-50
2022/10/07 02:44:50;;;;;;;48.88;19.73;;;;;;;;;;6163442;28;20150;-51
2022/10/07 02:48:20;;;;;;;51.90;19.38;;;;;;;;;;6162774;28;20035;-51
2022/10/07 02:51:30;;;;;;;52.80;20.88;;;;;;;;;;6162171;28;20078;-51
2022/10/07 02:54:36;;;;;;;46.65;17.35;;;;;;;;;;6165566;28;20050;-52
2022/10/07 02:57:40;;;;;;;50.50;20.02;;;;;;;;;;6162791;28;20233;-52
2022/10/07 03:00:45;;;;;;;53.67;20.40;;;;;;;;;;6162555;28;20096;-51
2022/10/07 03:03:46;;;;;;;51.50;19.45;;;;;;;;;;6162360;28;20053;-52
2022/10/07 03:06:46;;;;;;;53.08;20.55;;;;;;;;;;6161652;28;20110;-52
2022/10/07 03:09:47;;;;;;;58.50;20.17;;;;;;;;;;6162274;28;20146;-52
2022/10/07 03:12:49;;;;;;;68.65;24.27;;;;;;;;;;6166382;28;20054;-54
2022/10/07 03:15:50;;;;;;;59.30;21.35;;;;;;;;;;6164624;28;20079;-51
2022/10/07 03:18:51;;;;;;;58.17;21.23;;;;;;;;;;6163334;28;20553;-50
2022/10/07 03:21:53;;;;;;;64.13;23.77;;;;;;;;;;6162873;28;20344;-52
2022/10/07 03:24:53;;;;;;;66.10;23.23;;;;;;;;;;6161401;28;20042;-50
2022/10/07 03:27:55;;;;;;;63.55;23.70;;;;;;;;;;6162116;28;20053;-52
2022/10/07 03:31:07;;;;;;;62.53;25.33;;;;;;;;;;6161702;28;20391;-52
2022/10/07 03:34:08;;;;;;;67.50;26.27;;;;;;;;;;6161710;28;20526;-54
2022/10/07 03:37:08;;;;;;;70.03;27.92;;;;;;;;;;6160595;28;20038;-51
2022/10/07 03:40:09;;;;;;;67.75;27.95;;;;;;;;;;6163526;28;20047;-48
2022/10/07 03:43:09;;;;;;;74.50;28.08;;;;;;;;;;6165418;28;20059;-57
2022/10/07 03:46:10;;;;;;;63.97;24.27;;;;;;;;;;6161260;28;20051;-50
2022/10/07 03:49:11;;;;;;;67.25;25.50;;;;;;;;;;6161714;28;20053;-53
2022/10/07 03:52:11;;;;;;;68.63;26.52;;;;;;;;;;6162836;28;20092;-50
2022/10/07 03:55:12;;;;;;;65.18;27.08;;;;;;;;;;6161149;28;20517;-52
2022/10/07 03:58:12;;;;;;;58.83;24.00;;;;;;;;;;6160706;28;20046;-55
2022/10/07 04:01:16;;;;;;;61.78;23.58;;;;;;;;;;6164942;28;20042;-56
2022/10/07 04:04:17;;;;;;;62.30;25.08;;;;;;;;;;6161810;28;20133;-50
2022/10/07 04:07:20;;;;;;;62.55;26.27;;;;;;;;;;6160326;28;20073;-54
2022/10/07 04:10:20;;;;;;;69.53;27.35;;;;;;;;;;6165224;28;20046;-52
2022/10/07 04:13:21;;;;;;;67.78;26.67;;;;;;;;;;6165533;28;20516;-51
2022/10/07 04:16:22;;;;;;;66.45;26.08;;;;;;;;;;6178151;28;20155;-53
2022/10/07 04:19:23;;;;;;;69.53;25.73;;;;;;;;;;6168649;28;20046;-52
2022/10/07 04:22:24;;;;;;;60.38;24.30;;;;;;;;;;6164399;28;20060;-50
2022/10/07 04:25:33;;;;;;;63.67;23.87;;;;;;;;;;6160697;28;20430;-51
2022/10/07 04:28:34;;;;;;;64.95;25.13;;;;;;;;;;6162225;28;20792;-51
2022/10/07 04:31:35;;;;;;;61.63;24.45;;;;;;;;;;6161667;28;20570;-51
2022/10/07 04:34:36;;;;;;;56.87;24.47;;;;;;;;;;6160440;28;20778;-51
2022/10/07 04:37:36;;;;;;;59.33;24.38;;;;;;;;;;6158859;28;20049;-52
2022/10/07 04:40:39;;;;;;;61.92;25.42;;;;;;;;;;6160965;28;20062;-53
2022/10/07 04:43:40;;;;;;;64.47;24.63;;;;;;;;;;6167019;28;20133;-52
2022/10/07 04:46:40;;;;;;;61.35;24.73;;;;;;;;;;6168343;28;20621;-55
2022/10/07 04:49:41;;;;;;;61.97;24.55;;;;;;;;;;6167928;28;20557;-51
2022/10/07 04:52:42;;;;;;;59.03;23.77;;;;;;;;;;6168292;28;20146;-51
2022/10/07 04:55:46;;;;;;;61.38;22.98;;;;;;;;;;6168069;28;20045;-49
2022/10/07 04:58:46;;;;;;;62.50;24.67;;;;;;;;;;6163940;28;20042;-50
2022/10/07 05:01:47;;;;;;;61.28;26.17;;;;;;;;;;6161261;28;20054;-55
2022/10/07 05:04:47;;;;;;;65.82;25.30;;;;;;;;;;6158453;28;21510;-58
2022/10/07 05:07:53;;;;;;;62.70;23.20;;;;;;;;;;6154807;28;20054;-52
2022/10/07 05:10:55;;;;;;;56.67;24.98;;;;;;;;;;6154784;28;20129;-50
2022/10/07 05:13:56;;;;;;;60.50;23.95;;;;;;;;;;6159234;28;20042;-55
2022/10/07 05:16:56;;;;;;;66.88;25.67;;;;;;;;;;6157696;28;20054;-56
2022/10/07 05:19:57;;;;;;;59.28;22.80;;;;;;;;;;6164509;28;20047;-54
2022/10/07 05:22:57;;;;;;;62.38;25.20;;;;;;;;;;6168126;28;20049;-52
2022/10/07 05:26:00;;;;;;;55.88;23.73;;;;;;;;;;6169287;28;20047;-51
2022/10/07 05:29:02;;;;;;;53.00;22.73;;;;;;;;;;6169638;28;20174;-53
2022/10/07 05:32:02;;;;;;;58.27;24.27;;;;;;;;;;6172366;28;20078;-51
2022/10/07 05:35:03;;;;;;;57.03;24.45;;;;;;;;;;6166350;28;20133;-53
2022/10/07 05:38:04;;;;;;;71.15;27.67;;;;;;;;;;6162682;28;20054;-50
2022/10/07 05:41:08;;;;;;;66.13;25.98;;;;;;;;;;6165720;28;20517;-53
2022/10/07 05:44:08;;;;;;;64.82;25.77;;;;;;;;;;6165183;28;20081;-52
2022/10/07 05:47:09;;;;;;;65.97;25.10;;;;;;;;;;6163013;28;20502;-50
2022/10/07 05:50:09;;;;;;;67.60;26.02;;;;;;;;;;6164969;28;20047;-51
2022/10/07 05:53:10;;;;;;;68.97;27.73;;;;;;;;;;6165512;28;20141;-52
2022/10/07 05:56:15;;;;;;;70.13;26.83;;;;;;;;;;6161717;28;20046;-54
2022/10/07 05:59:15;;;;;;;72.80;28.27;;;;;;;;;;6165516;28;20045;-54
2022/10/07 06:02:17;;;;;;;69.32;27.58;;;;;;;;;;6163257;28;20054;-57
2022/10/07 06:05:18;;;;;;;62.72;27.25;;;;;;;;;;6162334;28;20133;-56
2022/10/07 06:08:20;;;;;;;70.72;28.48;;;;;;;;;;6162473;28;20043;-52
2022/10/07 06:14:40;;;;;;;69.80;29.17;;;;;;;;;;6164933;28;20647;-58
2022/10/07 06:17:42;;;;;;;63.90;28.27;;;;;;;;;;6162983;28;20043;-58
2022/10/07 06:20:52;;;;;;;75.18;28.90;;;;;;;;;;6164597;28;20063;-51
2022/10/07 06:23:55;;;;;;;71.45;28.75;;;;;;;;;;6163094;28;20050;-54
2022/10/07 06:26:55;;;;;;;;;;;;;;;;;;6162784;28;20057;-53
2022/10/07 06:29:56;;;;;;;69.78;27.88;;;;;;;;;;6163684;28;19955;-52
2022/10/07 06:32:56;;;;;;;67.13;29.40;;;;;;;;;;6161652;28;20055;-51
2022/10/07 06:36:01;;;;;;;75.15;30.33;;;;;;;;;;6163027;28;20051;-61
2022/10/07 06:39:01;;;;;;;77.32;29.02;;;;;;;;;;6165670;28;20142;-52
2022/10/07 06:42:02;;;;;;;51.63;21.45;;;;;;;;;;6168908;28;20047;-53
2022/10/07 06:45:03;;;;;;;49.50;21.15;;;;;;;;;;6168996;28;20093;-53
2022/10/07 06:48:03;;;;;;;48.10;19.58;;;;;;;;;;6167732;28;20053;-51
2022/10/07 06:51:04;;;;;;;44.85;18.58;;;;;;;;;;6169199;28;20042;-52
2022/10/07 06:54:05;;;;;;;51.33;18.83;;;;;;;;;;6168857;28;20043;-54
2022/10/07 06:57:06;;;;;;;47.30;18.48;;;;;;;;;;6167665;28;20090;-61
2022/10/07 07:00:07;;;;;;;52.35;20.30;;;;;;;;;;6168246;28;20089;-58
2022/10/07 07:03:09;;;;;;;52.03;20.20;;;;;;;;;;6168649;28;20051;-54
2022/10/07 07:06:10;;;;;;;43.45;17.83;;;;;;;;;;6166749;28;20130;-53
2022/10/07 07:09:10;;;;;;;40.47;18.42;;;;;;;;;;6166593;28;20054;-54
2022/10/07 07:12:11;;;;;;;46.40;16.92;;;;;;;;;;6161848;28;20039;-51
2022/10/07 07:15:11;;;;;;;38.45;17.00;;;;;;;;;;6162141;28;20046;-53
2022/10/07 07:18:12;;;;;;;43.53;17.17;;;;;;;;;;6161321;28;20841;-52
2022/10/07 07:21:12;;;;;;;41.60;16.88;;;;;;;;;;6163280;28;20038;-52
2022/10/07 07:24:14;;;;;;;41.72;17.70;;;;;;;;;;6164922;28;20046;-52
2022/10/07 07:27:14;;;;;;;41.40;18.00;;;;;;;;;;6162448;28;20604;-52
2022/10/07 07:30:15;;;;;;;47.20;19.48;;;;;;;;;;6167203;28;20058;-54
2022/10/07 07:33:15;;;;;;;42.60;18.63;;;;;;;;;;6167825;28;20453;-51
2022/10/07 07:36:17;;;;;;;43.47;18.92;;;;;;;;;;6166211;28;20145;-51
2022/10/07 07:39:19;;;;;;;43.90;19.02;;;;;;;;;;6167284;28;20818;-54
2022/10/07 07:42:20;;;;;;;43.00;18.50;;;;;;;;;;6167821;28;20049;-54
2022/10/07 07:45:22;;;;;;;43.50;19.55;;;;;;;;;;6167235;28;20058;-51
2022/10/07 07:48:22;;;;;;;42.60;18.25;;;;;;;;;;6166504;28;20146;-50
2022/10/07 07:51:23;;;;;;;41.17;17.45;;;;;;;;;;6167796;28;20054;-51
2022/10/07 07:54:27;;;;;;;37.60;17.08;;;;;;;;;;6167804;28;20134;-51
2022/10/07 07:57:29;;;;;;;39.17;16.85;;;;;;;;;;6164255;28;20061;-52
2022/10/07 08:00:31;;;;;;;45.10;18.40;;;;;;;;;;6166967;28;20415;-50
2022/10/07 08:03:36;;;;;;;41.67;16.95;;;;;;;;;;6167508;28;20364;-58
2022/10/07 08:06:36;;;;;;;51.95;19.48;;;;;;;;;;6165337;28;20875;-52
2022/10/07 08:09:38;;;;;;;40.60;16.73;;;;;;;;;;6163811;28;20105;-50
2022/10/07 08:12:39;;;;;;;44.45;17.35;;;;;;;;;;6168782;28;20610;-53
2022/10/07 08:15:39;;;;;;;43.78;17.52;;;;;;;;;;6168627;28;20402;-58
2022/10/07 08:18:41;;;;;;;45.58;18.20;;;;;;;;;;6165202;28;20486;-54
2022/10/07 08:21:42;;;;;;;42.45;18.85;;;;;;;;;;6162056;28;20082;-55
2022/10/07 08:24:42;;;;;;;43.65;20.02;;;;;;;;;;6165497;28;20057;-57
2022/10/07 08:27:43;;;;;;;45.30;19.88;;;;;;;;;;6162050;28;21499;-58
2022/10/07 08:30:45;;;;;;;38.45;18.05;;;;;;;;;;6163218;28;20568;-57
2022/10/07 08:33:47;;;;;;;56.45;24.17;;;;;;;;;;6161684;28;20047;-55
2022/10/07 08:36:49;;;;;;;44.80;17.98;;;;;;;;;;6160671;28;22254;-56
2022/10/07 08:39:49;;;;;;;41.28;18.80;;;;;;;;;;6159349;28;20541;-55
2022/10/07 08:42:52;;;;;;;44.42;19.60;;;;;;;;;;6159489;28;20042;-58
2022/10/07 08:45:54;;;;;;;40.33;18.67;;;;;;;;;;6160023;28;20125;-56
2022/10/07 08:49:03;;;;;;;40.28;18.00;;;;;;;;;;6159340;28;20202;-57
2022/10/07 08:52:34;;;;;;;46.08;19.35;;;;;;;;;;6161061;28;20058;-57
2022/10/07 08:55:45;;;;;;;39.85;18.50;;;;;;;;;;6161385;28;20066;-57
2022/10/07 08:58:59;;;;;;;42.20;18.63;;;;;;;;;;6167223;28;20066;-53
2022/10/07 09:02:24;;;;;;;45.15;18.95;;;;;;;;;;6168260;28;20133;-54
2022/10/07 09:05:32;;;;;;;40.28;18.75;;;;;;;;;;6167908;28;20057;-55
2022/10/07 09:08:39;;;;;;;40.13;18.10;;;;;;;;;;6167943;28;20049;-55
2022/10/07 09:11:42;;;;;;;40.15;18.02;;;;;;;;;;6169716;28;20053;-56
2022/10/07 09:14:46;;;;;;;41.60;18.38;;;;;;;;;;6164956;28;20142;-55
2022/10/07 09:17:53;;;;;;;39.92;19.13;;;;;;;;;;6165006;28;20534;-56
2022/10/07 09:20:55;;;;;;;42.83;21.20;;;;;;;;;;6170726;28;20117;-55
2022/10/07 09:23:57;;;;;;;;;;;;;;;;;;6170094;28;20110;-56
2022/10/07 09:27:00;;;;;;;42.95;19.52;;;;;;;;;;6170518;28;19922;-58
2022/10/07 09:30:00;;;;;;;45.85;18.30;;;;;;;;;;6171011;28;20057;-57
2022/10/07 09:33:01;;;;;;;40.88;18.40;;;;;;;;;;6170179;28;20082;-58
2022/10/07 09:36:20;;;;;;;37.05;16.80;;;;;;;;;;6169851;28;20454;-55
2022/10/07 09:39:25;;;;;;;40.03;18.08;;;;;;;;;;6170425;28;20569;-55
2022/10/07 09:42:28;;;;;;;41.75;17.77;;;;;;;;;;6166474;28;20605;-57
2022/10/07 09:45:31;;;;;;;38.78;18.02;;;;;;;;;;6163503;28;20061;-59
2022/10/07 09:48:35;;;;;;;40.10;18.65;;;;;;;;;;6163053;28;20097;-58
2022/10/07 09:51:38;;;;;;;39.45;18.60;;;;;;;;;;6164099;28;20088;-57
2022/10/07 09:54:39;;;;;;;37.35;16.77;;;;;;;;;;6163278;28;20520;-58
2022/10/07 09:57:40;;;;;;;36.45;17.98;;;;;;;;;;6164292;28;20070;-57
2022/10/07 10:00:43;;;;;;;36.92;18.15;;;;;;;;;;6163703;28;20402;-57
2022/10/07 10:03:43;;;;;;;37.20;16.77;;;;;;;;;;6163435;28;20085;-57
2022/10/07 10:06:49;;;;;;;38.85;17.05;;;;;;;;;;6163355;28;20038;-57
2022/10/07 10:09:52;;;;;;;40.55;16.80;;;;;;;;;;6163122;28;20050;-62
2022/10/07 10:12:55;;;;;;;37.55;16.05;;;;;;;;;;6162483;28;20055;-56
2022/10/07 10:15:57;;;;;;;35.38;15.98;;;;;;;;;;6162929;28;20046;-57
2022/10/07 10:19:04;;;;;;;36.60;17.05;;;;;;;;;;6164270;28;20050;-58
2022/10/07 10:22:21;;;;;;;36.05;16.45;;;;;;;;;;6163621;28;20146;-55
2022/10/07 10:29:30;;;;;;;33.97;16.00;;;;;;;;;;6160203;28;20092;-59
2022/10/07 10:32:56;;;;;;;37.75;17.58;;;;;;;;;;6162496;28;20243;-59
2022/10/07 10:36:22;;;;;;;32.05;15.93;;;;;;;;;;6162458;28;20065;-58
2022/10/07 10:39:49;;;;;;;31.83;15.18;;;;;;;;;;6153212;28;20055;-56
2022/10/07 10:43:25;;;;;;;31.73;15.32;;;;;;;;;;6160905;28;20192;-53
2022/10/07 10:46:39;;;;;;;35.03;15.90;;;;;;;;;;6161346;28;20059;-56
2022/10/07 10:50:07;;;;;;;33.28;15.48;;;;;;;;;;6160425;28;20046;-61
2022/10/07 10:53:24;;;;;;;30.35;16.40;;;;;;;;;;6161844;28;20518;-56
2022/10/07 10:56:34;;;;;;;30.67;15.40;;;;;;;;;;6163356;28;20047;-56
2022/10/07 10:59:43;;;;;;;28.02;13.80;;;;;;;;;;6161857;28;20074;-58
2022/10/07 11:02:51;;;;;;;27.88;13.68;;;;;;;;;;6161432;28;20346;-56
2022/10/07 11:05:54;;;;;;;31.63;13.55;;;;;;;;;;6163070;28;20829;-56
2022/10/07 11:08:57;;;;;;;29.02;13.93;;;;;;;;;;6163404;28;20046;-57
2022/10/07 11:12:03;;;;;;;29.50;12.77;;;;;;;;;;6160182;28;20049;-56
2022/10/07 11:15:31;;;;;;;26.60;14.50;;;;;;;;;;6162202;28;20047;-55
2022/10/07 11:18:59;;;;;;;24.85;12.50;;;;;;;;;;6163167;28;20065;-56
2022/10/07 11:22:01;;;;;;;22.13;11.43;;;;;;;;;;6160409;28;20392;-54
2022/10/07 11:25:07;;;;;;;;;;;;;;;;;;6160392;28;20093;-56
2022/10/07 11:28:24;;;;;;;21.13;11.25;;;;;;;;;;6160052;28;19922;-57
2022/10/07 11:31:36;;;;;;;26.45;12.95;;;;;;;;;;6160812;28;20483;-54
2022/10/07 11:34:48;;;;;;;21.77;12.00;;;;;;;;;;6160746;28;20445;-57
2022/10/07 11:37:54;;;;;;;25.95;13.35;;;;;;;;;;6160693;28;20060;-58
2022/10/07 11:41:06;;;;;;;22.52;12.85;;;;;;;;;;6160051;28;20395;-57
2022/10/07 11:44:17;;;;;;;23.92;12.88;;;;;;;;;;6161927;28;20879;-59
2022/10/07 11:47:26;;;;;;;24.30;12.63;;;;;;;;;;6163215;28;20473;-56
2022/10/07 11:50:32;;;;;;;24.25;11.82;;;;;;;;;;6166261;28;20156;-56
2022/10/07 11:53:37;;;;;;;20.58;11.70;;;;;;;;;;6167766;28;20149;-56
2022/10/07 11:56:44;;;;;;;22.73;10.95;;;;;;;;;;6167629;28;20130;-59
2022/10/07 11:59:55;;;;;;;20.38;10.52;;;;;;;;;;6165661;28;20274;-57
2022/10/07 12:03:06;;;;;;;20.65;11.55;;;;;;;;;;6161701;28;20581;-60
2022/10/07 12:06:11;;;;;;;18.45;9.18;;;;;;;;;;6161708;28;20142;-56
2022/10/07 12:10:02;;;;;;;16.75;9.80;;;;;;;;;;6162317;28;20050;-55
2022/10/07 12:13:09;;;;;;;17.40;9.45;;;;;;;;;;6142810;28;20043;-61
2022/10/07 12:16:31;;;;;;;15.00;9.63;;;;;;;;;;6167976;28;20089;-54
2022/10/07 12:19:32;;;;;;;17.65;9.85;;;;;;;;;;6167275;28;20067;-56
2022/10/07 12:22:32;;;;;;;25.60;11.57;;;;;;;;;;6161528;28;20042;-54
2022/10/07 12:25:41;;;;;;;21.27;9.13;;;;;;;;;;6160543;28;20104;-58
2022/10/07 12:28:42;;;;;;;14.25;7.78;;;;;;;;;;6161046;28;20054;-57
2022/10/07 12:31:45;;;;;;;16.20;8.83;;;;;;;;;;6158844;28;20043;-55
2022/10/07 12:34:46;;;;;;;20.40;9.50;;;;;;;;;;6158067;28;20789;-56
2022/10/07 12:37:49;;;;;;;17.05;9.40;;;;;;;;;;6160979;28;20162;-56
2022/10/07 12:40:58;;;;;;;17.67;8.30;;;;;;;;;;6161883;28;20462;-56
2022/10/07 12:44:13;;;;;;;15.45;8.45;;;;;;;;;;6160712;28;20145;-53
2022/10/07 12:47:24;;;;;;;16.15;8.48;;;;;;;;;;6140654;28;20085;-56
2022/10/07 12:50:27;;;;;;;17.73;9.63;;;;;;;;;;6152921;28;20149;-57
2022/10/07 12:53:32;;;;;;;19.42;8.52;;;;;;;;;;6158768;28;20137;-58
2022/10/07 12:56:33;;;;;;;16.38;9.07;;;;;;;;;;6150765;28;20627;-58
2022/10/07 12:59:47;;;;;;;19.87;9.27;;;;;;;;;;6153905;28;20050;-51
2022/10/07 13:03:35;;;;;;;14.40;8.55;;;;;;;;;;6157323;28;20478;-57
2022/10/07 13:07:06;;;;;;;19.60;8.23;;;;;;;;;;6154574;28;20054;-60
2022/10/07 13:10:44;;;;;;;17.58;9.10;;;;;;;;;;6152234;28;20253;-55
2022/10/07 13:14:03;;;;;;;19.40;8.75;;;;;;;;;;6149346;28;20503;-60
2022/10/07 13:17:26;;;;;;;21.13;9.60;;;;;;;;;;6147596;28;20142;-58
2022/10/07 13:20:45;;;;;;;16.83;8.63;;;;;;;;;;6151128;28;20066;-60
2022/10/07 13:23:51;;;;;;;17.70;9.65;;;;;;;;;;6150006;28;20206;-62
2022/10/07 13:26:51;;;;;;;17.90;9.38;;;;;;;;;;6146965;28;20078;-58
2022/10/07 13:29:54;;;;;;;19.83;9.70;;;;;;;;;;6147446;28;20049;-53
2022/10/07 13:32:54;;;;;;;19.40;9.70;;;;;;;;;;6149298;28;20053;-58
2022/10/07 13:36:06;;;;;;;17.30;9.60;;;;;;;;;;6148903;28;20062;-61
2022/10/07 13:39:15;;;;;;;18.63;10.13;;;;;;;;;;6149018;28;20046;-59
2022/10/07 13:42:16;;;;;;;17.67;9.68;;;;;;;;;;6151486;28;20308;-61
2022/10/07 13:45:17;;;;;;;19.47;10.57;;;;;;;;;;6152600;28;20086;-57
2022/10/07 13:48:21;;;;;;;21.07;11.17;;;;;;;;;;6153151;28;20092;-61
2022/10/07 13:51:27;;;;;;;20.20;9.52;;;;;;;;;;6152430;28;20121;-60
2022/10/07 13:54:31;;;;;;;22.95;10.57;;;;;;;;;;6150246;28;20055;-61
2022/10/07 13:57:34;;;;;;;20.40;10.10;;;;;;;;;;6155577;28;20058;-63
2022/10/07 14:00:41;;;;;;;19.08;10.45;;;;;;;;;;6150952;28;20078;-61
2022/10/07 14:04:13;;;;;;;21.05;10.48;;;;;;;;;;6154369;28;20055;-61
2022/10/07 14:07:18;;;;;;;20.50;10.45;;;;;;;;;;6150966;28;20074;-60
2022/10/07 14:10:22;;;;;;;23.10;11.55;;;;;;;;;;6155686;28;20218;-60
2022/10/07 14:13:23;;;;;;;18.90;9.98;;;;;;;;;;6152507;28;20047;-60
2022/10/07 14:16:24;;;;;;;17.93;10.00;;;;;;;;;;6150301;28;20081;-61
2022/10/07 14:19:31;;;;;;;20.65;11.20;;;;;;;;;;6155129;28;20133;-63
2022/10/07 14:22:36;;;;;;;19.42;10.52;;;;;;;;;;6153286;28;20062;-61
2022/10/07 14:25:51;;;;;;;23.70;10.27;;;;;;;;;;6149630;28;20158;-58
2022/10/07 14:28:52;;;;;;;20.73;10.90;;;;;;;;;;6153612;28;20046;-58
2022/10/07 14:36:08;;;;;;;21.70;10.55;;;;;;;;;;6117282;28;20115;-62
2022/10/07 14:39:43;;;;;;;19.13;9.95;;;;;;;;;;6152800;28;20614;-61
2022/10/07 14:42:44;;;;;;;19.55;10.68;;;;;;;;;;6152422;28;20829;-58
2022/10/07 14:45:45;;;;;;;25.27;12.67;;;;;;;;;;6150420;28;20047;-61
2022/10/07 14:48:46;;;;;;;21.17;11.57;;;;;;;;;;6152655;28;20061;-61
2022/10/07 14:51:49;;;;;;;20.70;10.43;;;;;;;;;;6147317;28;20065;-62
2022/10/07 14:54:51;;;;;;;21.60;11.57;;;;;;;;;;6151934;28;20047;-63
2022/10/07 14:57:52;;;;;;;19.98;10.35;;;;;;;;;;6160411;28;21717;-63
2022/10/07 15:00:53;;;;;;;23.60;11.25;;;;;;;;;;6160001;28;20054;-63
2022/10/07 15:03:57;;;;;;;22.43;11.60;;;;;;;;;;6161661;28;20499;-62
2022/10/07 15:06:57;;;;;;;23.42;13.10;;;;;;;;;;6158073;28;20573;-62
2022/10/07 15:09:58;;;;;;;23.37;14.07;;;;;;;;;;6158891;28;20093;-61
2022/10/07 15:12:59;;;;;;;26.90;13.90;;;;;;;;;;6161032;28;20502;-62
2022/10/07 15:16:00;;;;;;;29.27;14.00;;;;;;;;;;6156565;28;21456;-63
2022/10/07 15:19:01;;;;;;;29.33;16.13;;;;;;;;;;6159630;28;20039;-60
2022/10/07 15:22:02;;;;;;;;;;;;;;;;;;6160703;28;20082;-63
2022/10/07 15:25:04;;;;;;;42.10;18.45;;;;;;;;;;6158288;28;21487;-61
2022/10/07 15:28:05;;;;;;;42.28;18.25;;;;;;;;;;6159542;28;21115;-60
2022/10/07 15:31:07;;;;;;;50.70;20.47;;;;;;;;;;6159311;28;20086;-60
2022/10/07 15:34:09;;;;;;;64.28;22.77;;;;;;;;;;6160527;28;20077;-60
2022/10/07 15:37:09;;;;;;;58.95;21.85;;;;;;;;;;6157744;28;20132;-60
2022/10/07 15:40:11;;;;;;;72.93;23.30;;;;;;;;;;6159559;28;20051;-60
2022/10/07 15:43:11;;;;;;;61.40;22.40;;;;;;;;;;6160512;28;20046;-60
2022/10/07 15:46:12;;;;;;;51.13;22.23;;;;;;;;;;6156344;28;20047;-58
2022/10/07 15:49:13;;;;;;;46.50;21.20;;;;;;;;;;6158886;28;20059;-63
2022/10/07 15:52:14;;;;;;;100.25;35.00;;;;;;;;;;6158856;28;21504;-57
2022/10/07 15:55:15;;;;;;;44.90;21.97;;;;;;;;;;6156774;28;20057;-61
2022/10/07 15:58:17;;;;;;;50.57;21.33;;;;;;;;;;6159185;28;20146;-60
2022/10/07 16:01:17;;;;;;;53.28;23.50;;;;;;;;;;6158177;28;20050;-62
2022/10/07 16:04:19;;;;;;;52.97;19.90;;;;;;;;;;6157541;28;20058;-61
2022/10/07 16:07:19;;;;;;;51.88;26.42;;;;;;;;;;6155684;28;20130;-63
2022/10/07 16:10:20;;;;;;;34.77;15.67;;;;;;;;;;6156049;28;20094;-63
2022/10/07 16:13:22;;;;;;;57.00;26.57;;;;;;;;;;6157891;28;20905;-60
2022/10/07 16:16:24;;;;;;;30.73;15.02;;;;;;;;;;6155235;28;20039;-59
2022/10/07 16:19:25;;;;;;;32.50;14.48;;;;;;;;;;6157954;28;20104;-59
2022/10/07 16:22:26;;;;;;;73.13;36.20;;;;;;;;;;6157522;28;20503;-59
2022/10/07 16:25:26;;;;;;;69.32;33.47;;;;;;;;;;6154453;28;20058;-59
2022/10/07 16:31:47;;;;;;;147.30;45.85;;;;;;;;;;6158479;28;20063;-60
2022/10/07 16:34:48;;;;;;;84.15;32.00;;;;;;;;;;6156664;28;20050;-59
2022/10/07 16:37:49;;;;;;;43.38;19.30;;;;;;;;;;6159030;28;20053;-59
2022/10/07 16:40:53;;;;;;;114.82;56.38;;;;;;;;;;6157631;28;20085;-59
2022/10/07 16:43:58;;;;;;;126.10;59.70;;;;;;;;;;6159477;28;21496;-59
2022/10/07 16:47:00;;;;;;;57.55;24.30;;;;;;;;;;6156132;28;20062;-59
2022/10/07 16:50:00;;;;;;;53.33;21.35;;;;;;;;;;6154275;28;20078;-59
2022/10/07 16:53:01;;;;;;;48.70;21.13;;;;;;;;;;6158867;28;20070;-60
2022/10/07 16:56:03;;;;;;;49.53;22.25;;;;;;;;;;6155565;28;20086;-60
2022/10/07 16:59:06;;;;;;;48.92;22.30;;;;;;;;;;6159287;28;20193;-61
2022/10/07 17:02:07;;;;;;;46.03;21.05;;;;;;;;;;6157018;28;20051;-60
2022/10/07 17:05:09;;;;;;;51.30;22.20;;;;;;;;;;6155794;28;20116;-60
2022/10/07 17:08:10;;;;;;;56.80;25.15;;;;;;;;;;6156349;28;21012;-59
2022/10/07 17:11:27;;;;;;;60.92;26.17;;;;;;;;;;6157235;28;20142;-60
2022/10/07 17:14:30;;;;;;;74.63;29.50;;;;;;;;;;6154540;28;20519;-60
2022/10/07 17:17:32;;;;;;;71.57;29.13;;;;;;;;;;6160056;28;20054;-59
2022/10/07 17:20:33;;;;;;;70.82;28.73;;;;;;;;;;6163769;28;20046;-59
2022/10/07 17:23:34;;;;;;;60.17;25.92;;;;;;;;;;6162429;28;20043;-61
2022/10/07 17:26:36;;;;;;;68.18;26.40;;;;;;;;;;6159954;28;20050;-59
2022/10/07 17:29:37;;;;;;;;;;;;;;;;;;6162371;28;20152;-58
2022/10/07 17:32:37;;;;;;;64.30;28.85;;;;;;;;;;6162823;28;20269;-61
2022/10/07 17:35:39;;;;;;;62.38;28.00;;;;;;;;;;6160146;28;20053;-62
2022/10/07 17:38:42;;;;;;;66.47;28.85;;;;;;;;;;6152403;28;20530;-61
2022/10/07 17:41:43;;;;;;;75.85;29.45;;;;;;;;;;6160064;28;20054;-60
2022/10/07 17:44:43;;;;;;;62.65;26.42;;;;;;;;;;6158571;28;21687;-59
2022/10/07 17:47:44;;;;;;;62.22;27.02;;;;;;;;;;6163133;28;20553;-56
2022/10/07 17:50:44;;;;;;;74.15;29.58;;;;;;;;;;6162833;28;20055;-57
2022/10/07 17:53:48;;;;;;;63.17;27.95;;;;;;;;;;6162432;28;20047;-57
2022/10/07 17:56:48;;;;;;;94.18;36.33;;;;;;;;;;6159226;28;20039;-59
2022/10/07 17:59:51;;;;;;;86.47;34.75;;;;;;;;;;6162145;28;20051;-58
2022/10/07 18:02:52;;;;;;;92.65;36.33;;;;;;;;;;6161663;28;20058;-55
2022/10/07 18:05:53;;;;;;;89.28;36.13;;;;;;;;;;6155085;28;20073;-59
2022/10/07 18:08:53;;;;;;;90.93;39.22;;;;;;;;;;6162474;28;20545;-61
2022/10/07 18:15:19;;;;;;;93.68;38.55;;;;;;;;;;6158051;28;20046;-57
2022/10/07 18:18:20;;;;;;;99.55;38.22;;;;;;;;;;6162401;28;20603;-60
2022/10/07 18:21:22;;;;;;;99.40;38.78;;;;;;;;;;6162017;28;20050;-60